createdAt,value
2023-12-13T00:01:35.199Z,10.49
2023-12-13T00:04:04.877Z,10.51
2023-12-13T00:06:32.684Z,10.42
2023-12-13T00:09:00.413Z,10.42
2023-12-13T00:11:28.182Z,10.33
2023-12-13T00:13:55.992Z,10.36
2023-12-13T00:16:24.526Z,10.47
2023-12-13T00:18:52.591Z,10.37
2023-12-13T00:21:24.808Z,10.34
2023-12-13T00:23:52.792Z,10.44
2023-12-13T00:26:21.250Z,10.43
2023-12-13T00:28:49.079Z,10.42
2023-12-13T00:31:16.945Z,10.40
2023-12-13T00:33:44.774Z,10.36
2023-12-13T00:36:12.654Z,10.42
2023-12-13T00:38:41.803Z,10.36
2023-12-13T00:41:09.610Z,10.53
2023-12-13T00:43:37.453Z,10.28
2023-12-13T00:46:06.577Z,10.30
2023-12-13T00:48:34.882Z,10.25
2023-12-13T00:51:02.755Z,10.32
2023-12-13T00:53:30.621Z,10.47
2023-12-13T00:55:59.753Z,10.57
2023-12-13T00:58:27.519Z,10.51
2023-12-13T01:00:55.591Z,10.36
2023-12-13T01:03:23.375Z,10.37
2023-12-13T01:05:51.126Z,10.40
2023-12-13T01:08:18.834Z,10.52
2023-12-13T01:10:46.720Z,10.40
2023-12-13T01:13:15.809Z,10.29
2023-12-13T01:15:43.564Z,10.54
2023-12-13T01:18:11.427Z,10.62
2023-12-13T01:20:39.255Z,10.48
2023-12-13T01:23:07.022Z,10.36
2023-12-13T01:25:34.835Z,10.43
2023-12-13T01:28:02.711Z,10.44
2023-12-13T01:30:31.918Z,10.51
2023-12-13T01:32:59.752Z,10.50
2023-12-13T01:35:27.806Z,10.56
2023-12-13T01:37:55.713Z,10.50
2023-12-13T01:40:23.574Z,10.48
2023-12-13T01:42:51.350Z,10.48
2023-12-13T01:45:19.085Z,10.59
2023-12-13T01:47:48.265Z,10.55
2023-12-13T01:50:16.121Z,10.30
2023-12-13T01:52:44.354Z,10.43
2023-12-13T01:55:12.780Z,10.44
2023-12-13T01:57:42.073Z,10.39
2023-12-13T02:00:10.592Z,10.38
2023-12-13T02:02:38.502Z,10.34
2023-12-13T02:05:09.833Z,10.22
2023-12-13T02:07:38.962Z,10.33
2023-12-13T02:10:08.183Z,10.33
2023-12-13T02:12:36.929Z,10.45
2023-12-13T02:15:05.984Z,10.42
2023-12-13T02:17:34.296Z,10.46
2023-12-13T02:20:02.249Z,10.51
2023-12-13T02:22:31.428Z,10.31
2023-12-13T02:25:01.087Z,10.40
2023-12-13T02:27:30.984Z,10.48
2023-12-13T02:29:59.189Z,10.41
2023-12-13T02:32:26.980Z,10.34
2023-12-13T02:34:55.497Z,10.55
2023-12-13T02:37:23.469Z,10.45
2023-12-13T02:39:52.877Z,10.42
2023-12-13T02:42:20.666Z,10.40
2023-12-13T02:44:48.476Z,10.65
2023-12-13T02:47:16.241Z,10.64
2023-12-13T02:49:44.008Z,10.54
2023-12-13T02:52:11.823Z,10.49
2023-12-13T02:54:39.608Z,10.40
2023-12-13T02:57:08.721Z,10.39
2023-12-13T02:59:36.457Z,10.39
2023-12-13T03:02:04.539Z,10.46
2023-12-13T03:04:32.534Z,10.51
2023-12-13T03:07:01.083Z,10.27
2023-12-13T03:09:28.815Z,10.32
2023-12-13T03:11:56.598Z,10.42
2023-12-13T03:14:26.884Z,10.37
2023-12-13T03:16:54.692Z,10.41
2023-12-13T03:19:22.643Z,10.35
2023-12-13T03:21:50.544Z,10.44
2023-12-13T03:24:18.371Z,10.43
2023-12-13T03:26:46.183Z,10.25
2023-12-13T03:29:13.977Z,10.44
2023-12-13T03:31:43.103Z,10.50
2023-12-13T03:34:11.056Z,10.53
2023-12-13T03:36:38.930Z,10.32
2023-12-13T03:39:08.458Z,10.45
2023-12-13T03:41:36.546Z,10.55
2023-12-13T03:44:04.479Z,10.33
2023-12-13T03:46:32.437Z,10.53
2023-12-13T03:49:01.799Z,10.37
2023-12-13T03:51:29.499Z,10.28
2023-12-13T03:53:57.267Z,10.39
2023-12-13T03:56:25.036Z,10.49
2023-12-13T03:58:52.767Z,10.55
2023-12-13T04:01:20.594Z,10.62
2023-12-13T04:03:48.469Z,10.51
2023-12-13T04:06:17.740Z,10.53
2023-12-13T04:08:45.488Z,10.63
2023-12-13T04:11:13.241Z,10.30
2023-12-13T04:13:40.984Z,10.51
2023-12-13T04:16:09.861Z,10.54
2023-12-13T04:18:38.605Z,10.50
2023-12-13T04:21:07.110Z,10.66
2023-12-13T04:23:36.286Z,10.68
2023-12-13T04:26:04.210Z,10.52
2023-12-13T04:28:31.932Z,10.58
2023-12-13T04:30:59.741Z,10.56
2023-12-13T04:33:27.796Z,10.67
2023-12-13T04:35:58.455Z,10.71
2023-12-13T04:38:26.267Z,10.67
2023-12-13T04:40:55.465Z,10.52
2023-12-13T04:43:23.465Z,10.62
2023-12-13T04:45:52.304Z,10.60
2023-12-13T04:48:20.214Z,10.56
2023-12-13T04:50:48.066Z,10.51
2023-12-13T04:53:15.811Z,10.59
2023-12-13T04:55:43.583Z,10.55
2023-12-13T04:58:12.773Z,10.53
2023-12-13T05:00:40.578Z,10.32
2023-12-13T05:03:08.871Z,10.33
2023-12-13T05:05:36.800Z,10.47
2023-12-13T05:08:05.463Z,10.47
2023-12-13T05:10:33.274Z,10.42
2023-12-13T05:13:01.045Z,10.49
2023-12-13T05:15:30.119Z,10.55
2023-12-13T05:17:57.892Z,10.59
2023-12-13T05:20:25.702Z,10.36
2023-12-13T05:22:53.599Z,10.42
2023-12-13T05:25:21.500Z,10.27
2023-12-13T05:27:49.314Z,10.39
2023-12-13T05:30:19.148Z,10.33
2023-12-13T05:32:48.356Z,10.37
2023-12-13T05:35:16.322Z,10.42
2023-12-13T05:37:44.251Z,10.52
2023-12-13T05:40:13.921Z,10.44
2023-12-13T05:42:42.174Z,10.49
2023-12-13T05:45:10.703Z,10.26
2023-12-13T05:47:38.745Z,10.28
2023-12-13T05:50:09.350Z,10.25
2023-12-13T05:52:37.932Z,10.38
2023-12-13T05:55:06.479Z,10.49
2023-12-13T05:57:34.505Z,10.49
2023-12-13T06:00:03.030Z,10.29
2023-12-13T06:02:38.467Z,10.41
2023-12-13T06:05:24.214Z,10.59
2023-12-13T06:07:52.485Z,10.20
2023-12-13T06:10:20.731Z,10.44
2023-12-13T06:12:52.015Z,10.45
2023-12-13T06:15:20.003Z,10.44
2023-12-13T06:17:47.896Z,10.45
2023-12-13T06:20:15.850Z,10.44
2023-12-13T06:22:45.137Z,10.34
2023-12-13T06:25:13.017Z,10.44
2023-12-13T06:27:40.828Z,10.65
2023-12-13T06:30:11.621Z,10.77
2023-12-13T06:32:40.371Z,10.52
2023-12-13T06:35:08.953Z,10.40
2023-12-13T06:37:36.932Z,10.71
2023-12-13T06:40:07.605Z,10.59
2023-12-13T06:42:35.379Z,10.53
2023-12-13T06:45:04.026Z,10.67
2023-12-13T06:47:32.996Z,10.43
2023-12-13T06:50:01.200Z,10.48
2023-12-13T06:52:29.366Z,10.58
2023-12-13T06:54:57.525Z,10.62
2023-12-13T06:57:26.779Z,10.35
2023-12-13T06:59:54.560Z,10.45
2023-12-13T07:02:22.289Z,10.51
2023-12-13T07:04:50.229Z,10.56
2023-12-13T07:07:18.112Z,10.49
2023-12-13T07:09:46.596Z,10.39
2023-12-13T07:12:14.367Z,10.51
2023-12-13T07:14:43.497Z,10.58
2023-12-13T07:17:11.266Z,10.64
2023-12-13T07:19:39.612Z,10.58
2023-12-13T07:22:07.419Z,10.56
2023-12-13T07:24:35.227Z,10.60
2023-12-13T07:27:03.688Z,10.63
2023-12-13T07:29:33.611Z,10.54
2023-12-13T07:32:02.807Z,10.65
2023-12-13T07:34:30.681Z,10.57
2023-12-13T07:36:58.634Z,10.50
2023-12-13T07:39:27.292Z,10.63
2023-12-13T07:41:56.033Z,10.62
2023-12-13T07:44:23.863Z,10.56
2023-12-13T07:46:51.738Z,10.72
2023-12-13T07:49:21.151Z,10.70
2023-12-13T07:51:48.990Z,10.79
2023-12-13T07:54:17.613Z,10.83
2023-12-13T07:56:46.922Z,10.80
2023-12-13T07:59:14.734Z,10.78
2023-12-13T08:01:42.534Z,10.95
2023-12-13T08:04:10.434Z,11.01
2023-12-13T08:06:39.560Z,11.07
2023-12-13T08:09:10.341Z,11.14
2023-12-13T08:11:38.241Z,11.09
2023-12-13T08:14:06.141Z,10.83
2023-12-13T08:16:33.997Z,10.94
2023-12-13T08:19:01.993Z,10.95
2023-12-13T08:21:29.846Z,10.85
2023-12-13T08:23:59.030Z,10.97
2023-12-13T08:26:27.190Z,11.02
2023-12-13T08:29:02.420Z,10.93
2023-12-13T08:31:34.792Z,10.97
2023-12-13T08:34:02.752Z,11.17
2023-12-13T08:36:30.654Z,11.10
2023-12-13T08:38:59.729Z,11.11
2023-12-13T08:41:29.058Z,11.24
2023-12-13T08:43:57.262Z,10.65
2023-12-13T08:46:25.067Z,10.68
2023-12-13T08:48:52.977Z,11.09
2023-12-13T08:51:20.924Z,11.23
2023-12-13T08:53:49.991Z,11.07
2023-12-13T08:56:19.196Z,11.16
2023-12-13T08:58:46.958Z,11.08
2023-12-13T09:01:15.907Z,11.15
2023-12-13T09:03:44.478Z,11.15
2023-12-13T09:06:12.254Z,11.21
2023-12-13T09:08:40.051Z,11.08
2023-12-13T09:11:07.935Z,11.20
2023-12-13T09:13:37.038Z,11.17
2023-12-13T09:16:05.735Z,11.00
2023-12-13T09:18:33.684Z,11.03
2023-12-13T09:21:01.603Z,10.97
2023-12-13T09:23:30.557Z,11.15
2023-12-13T09:26:00.315Z,11.22
2023-12-13T09:28:30.251Z,11.20
2023-12-13T09:30:59.821Z,11.27
2023-12-13T09:33:27.746Z,11.36
2023-12-13T09:35:55.613Z,11.42
2023-12-13T09:38:23.344Z,11.27
2023-12-13T09:40:52.389Z,11.56
2023-12-13T09:43:21.151Z,11.65
2023-12-13T09:45:52.484Z,11.40
2023-12-13T09:48:23.871Z,11.32
2023-12-13T09:50:54.004Z,11.40
2023-12-13T09:53:22.903Z,11.54
2023-12-13T09:55:51.662Z,11.42
2023-12-13T09:58:19.692Z,11.36
2023-12-13T10:00:47.514Z,11.48
2023-12-13T10:03:16.116Z,11.51
2023-12-13T10:05:46.399Z,11.39
2023-12-13T10:08:14.229Z,11.50
2023-12-13T10:10:42.142Z,11.59
2023-12-13T10:13:11.202Z,11.64
2023-12-13T10:15:39.823Z,11.62
2023-12-13T10:18:07.687Z,11.57
2023-12-13T10:20:37.139Z,11.73
2023-12-13T10:23:07.131Z,11.64
2023-12-13T10:25:38.497Z,11.72
2023-12-13T10:28:06.613Z,11.77
2023-12-13T10:30:35.163Z,11.77
2023-12-13T10:33:02.942Z,11.69
2023-12-13T10:35:30.738Z,11.81
2023-12-13T10:38:00.222Z,11.95
2023-12-13T10:40:29.577Z,12.04
2023-12-13T10:42:57.514Z,11.98
2023-12-13T10:45:25.785Z,11.89
2023-12-13T10:47:59.431Z,12.12
2023-12-13T10:50:28.861Z,11.99
2023-12-13T10:52:56.960Z,12.10
2023-12-13T10:55:25.984Z,12.11
2023-12-13T10:57:55.619Z,11.96
2023-12-13T11:00:26.981Z,12.06
2023-12-13T11:03:00.186Z,12.09
2023-12-13T11:05:28.043Z,11.88
2023-12-13T11:07:55.991Z,11.81
2023-12-13T11:10:24.280Z,11.18
2023-12-13T11:12:53.299Z,11.49
2023-12-13T11:15:22.413Z,11.67
2023-12-13T11:17:55.193Z,11.88
2023-12-13T11:20:23.752Z,11.61
2023-12-13T11:22:51.650Z,11.14
2023-12-13T11:25:19.755Z,11.09
2023-12-13T11:27:54.417Z,11.16
2023-12-13T11:30:24.036Z,11.22
2023-12-13T11:32:52.818Z,10.42
2023-12-13T11:35:22.188Z,9.97
2023-12-13T11:37:52.189Z,10.72
2023-12-13T11:40:20.816Z,10.57
2023-12-13T11:42:49.135Z,10.61
2023-12-13T11:45:20.441Z,10.72
2023-12-13T11:47:52.032Z,10.73
2023-12-13T11:50:22.443Z,11.03
2023-12-13T11:52:50.400Z,11.14
2023-12-13T11:55:20.447Z,11.59
2023-12-13T11:57:50.798Z,11.51
2023-12-13T12:00:19.882Z,11.51
2023-12-13T12:02:49.103Z,11.92
2023-12-13T12:05:17.299Z,11.18
2023-12-13T12:07:45.199Z,10.90
2023-12-13T12:10:13.097Z,11.40
2023-12-13T12:12:40.821Z,10.57
2023-12-13T12:15:09.251Z,11.24
2023-12-13T12:17:37.759Z,11.50
2023-12-13T12:20:08.657Z,11.61
2023-12-13T12:22:37.849Z,11.93
2023-12-13T12:25:06.674Z,10.94
2023-12-13T12:27:36.897Z,10.74
2023-12-13T12:30:05.929Z,10.09
2023-12-13T12:32:33.751Z,11.03
2023-12-13T12:35:04.016Z,11.32
2023-12-13T12:37:33.669Z,11.20
2023-12-13T12:40:01.672Z,11.79
2023-12-13T12:42:29.618Z,11.30
2023-12-13T12:44:57.340Z,10.62
2023-12-13T12:47:25.165Z,10.63
2023-12-13T12:49:54.106Z,10.75
2023-12-13T12:52:22.109Z,10.68
2023-12-13T12:54:51.556Z,10.69
2023-12-13T12:57:19.789Z,10.60
2023-12-13T12:59:51.599Z,10.91
2023-12-13T13:02:20.297Z,10.90
2023-12-13T13:04:48.564Z,10.41
2023-12-13T13:07:16.800Z,10.04
2023-12-13T13:09:44.553Z,9.97
2023-12-13T13:12:13.763Z,10.35
2023-12-13T13:14:41.520Z,10.13
2023-12-13T13:17:09.374Z,10.57
2023-12-13T13:19:37.222Z,10.39
2023-12-13T13:22:08.510Z,10.30
2023-12-13T13:24:43.085Z,10.44
2023-12-13T13:27:17.857Z,9.93
2023-12-13T13:29:51.476Z,9.69
2023-12-13T13:32:19.678Z,9.78
2023-12-13T13:34:47.481Z,10.23
2023-12-13T13:37:15.772Z,10.15
2023-12-13T13:39:43.524Z,9.75
2023-12-13T13:42:12.145Z,9.94
2023-12-13T13:44:41.872Z,10.07
2023-12-13T13:47:11.216Z,9.84
2023-12-13T13:49:39.471Z,9.64
2023-12-13T13:52:07.790Z,9.70
2023-12-13T13:54:36.607Z,10.11
2023-12-13T13:57:05.552Z,10.05
2023-12-13T13:59:33.493Z,10.18
2023-12-13T14:02:01.361Z,10.60
2023-12-13T14:04:30.647Z,10.18
2023-12-13T14:06:58.340Z,10.10
2023-12-13T14:09:26.176Z,9.88
2023-12-13T14:11:55.804Z,9.91
2023-12-13T14:14:24.995Z,10.03
2023-12-13T14:16:52.788Z,9.74
2023-12-13T14:19:20.901Z,9.95
2023-12-13T14:21:50.170Z,10.18
2023-12-13T14:24:17.945Z,9.81
2023-12-13T14:26:45.739Z,9.94
2023-12-13T14:29:14.203Z,9.73
2023-12-13T14:31:42.087Z,9.60
2023-12-13T14:34:09.948Z,9.71
2023-12-13T14:36:37.813Z,9.71
2023-12-13T14:39:07.208Z,9.58
2023-12-13T14:41:35.007Z,9.56
2023-12-13T14:44:02.960Z,9.64
2023-12-13T14:46:30.796Z,9.73
2023-12-13T14:48:58.618Z,9.80
2023-12-13T14:51:26.425Z,9.97
2023-12-13T14:53:57.616Z,9.94
2023-12-13T14:56:27.407Z,10.10
2023-12-13T14:58:55.266Z,9.91
2023-12-13T15:01:23.983Z,9.49
2023-12-13T15:03:52.344Z,9.34
2023-12-13T15:06:20.712Z,9.41
2023-12-13T15:08:50.394Z,9.41
2023-12-13T15:11:18.146Z,9.79
2023-12-13T15:13:47.375Z,9.66
2023-12-13T15:16:15.159Z,9.57
2023-12-13T15:18:43.027Z,9.36
2023-12-13T15:21:10.846Z,9.20
2023-12-13T15:23:38.635Z,9.10
2023-12-13T15:26:07.096Z,9.11
2023-12-13T15:28:37.171Z,9.28
2023-12-13T15:31:08.590Z,9.24
2023-12-13T15:33:36.757Z,9.27
2023-12-13T15:36:05.156Z,9.37
2023-12-13T15:38:33.707Z,9.63
2023-12-13T15:41:01.559Z,9.43
2023-12-13T15:43:29.749Z,9.21
2023-12-13T15:45:58.685Z,9.18
2023-12-13T15:48:27.973Z,9.29
2023-12-13T15:50:55.653Z,9.56
2023-12-13T15:53:23.465Z,9.44
2023-12-13T15:55:51.327Z,9.50
2023-12-13T15:58:19.152Z,9.26
2023-12-13T16:00:49.002Z,9.19
2023-12-13T16:03:17.237Z,9.10
2023-12-13T16:05:46.427Z,9.54
2023-12-13T16:08:14.525Z,9.32
2023-12-13T16:10:45.169Z,9.30
2023-12-13T16:13:13.033Z,9.26
2023-12-13T16:15:40.771Z,9.32
2023-12-13T16:18:08.700Z,9.49
2023-12-13T16:20:36.536Z,9.39
2023-12-13T16:23:05.643Z,9.06
2023-12-13T16:25:33.433Z,9.11
2023-12-13T16:28:03.109Z,8.68
2023-12-13T16:30:32.681Z,9.04
2023-12-13T16:33:00.509Z,9.29
2023-12-13T16:35:28.278Z,9.25
2023-12-13T16:37:56.221Z,8.85
2023-12-13T16:40:25.375Z,8.96
2023-12-13T16:42:54.301Z,8.90
2023-12-13T16:45:22.147Z,9.15
2023-12-13T16:47:49.926Z,9.30
2023-12-13T16:50:17.819Z,9.20
2023-12-13T16:52:45.652Z,9.22
2023-12-13T16:55:13.464Z,9.04
2023-12-13T16:57:42.597Z,9.11
2023-12-13T17:00:12.334Z,9.43
2023-12-13T17:02:44.259Z,9.19
2023-12-13T17:05:14.121Z,8.92
2023-12-13T17:07:43.604Z,8.74
2023-12-13T17:10:11.832Z,8.79
2023-12-13T17:12:39.757Z,8.77
2023-12-13T17:15:09.629Z,8.77
2023-12-13T17:17:37.623Z,8.81
2023-12-13T17:20:06.566Z,8.31
2023-12-13T17:22:34.789Z,8.56
2023-12-13T17:25:02.751Z,8.36
2023-12-13T17:27:30.773Z,8.18
2023-12-13T17:29:58.551Z,8.40
2023-12-13T17:32:28.480Z,8.05
2023-12-13T17:34:56.331Z,7.85
2023-12-13T17:37:24.110Z,7.66
2023-12-13T17:39:52.660Z,7.95
2023-12-13T17:42:20.436Z,7.70
2023-12-13T17:44:49.168Z,7.72
2023-12-13T17:47:17.657Z,7.79
2023-12-13T17:49:47.092Z,7.80
2023-12-13T17:52:15.338Z,7.93
2023-12-13T17:54:43.171Z,7.38
2023-12-13T17:57:13.812Z,7.63
2023-12-13T17:59:42.740Z,7.51
2023-12-13T18:02:12.432Z,7.26
2023-12-13T18:04:42.535Z,7.29
2023-12-13T18:07:12.205Z,7.73
2023-12-13T18:09:40.003Z,7.63
2023-12-13T18:12:09.113Z,7.41
2023-12-13T18:14:37.008Z,7.92
2023-12-13T18:17:05.285Z,7.58
2023-12-13T18:19:33.150Z,7.43
2023-12-13T18:22:00.968Z,7.34
2023-12-13T18:24:30.045Z,7.51
2023-12-13T18:26:58.269Z,7.52
2023-12-13T18:29:26.160Z,7.38
2023-12-13T18:31:55.137Z,7.36
2023-12-13T18:34:23.212Z,7.34
2023-12-13T18:36:51.037Z,7.34
2023-12-13T18:39:19.010Z,7.48
2023-12-13T18:41:50.197Z,7.54
2023-12-13T18:44:18.032Z,7.33
2023-12-13T18:46:46.089Z,6.88
2023-12-13T18:49:13.914Z,6.95
2023-12-13T18:51:41.754Z,7.04
2023-12-13T18:54:09.499Z,6.91
2023-12-13T18:56:37.813Z,7.10
2023-12-13T18:59:07.020Z,6.63
2023-12-13T19:01:36.010Z,6.85
2023-12-13T19:04:04.222Z,6.83
2023-12-13T19:06:32.069Z,6.75
2023-12-13T19:08:59.912Z,6.80
2023-12-13T19:11:27.702Z,6.83
2023-12-13T19:13:55.545Z,6.56
2023-12-13T19:16:29.735Z,6.61
2023-12-13T19:18:57.987Z,7.06
2023-12-13T19:21:25.837Z,6.55
2023-12-13T19:23:53.583Z,6.70
2023-12-13T19:26:21.414Z,6.41
2023-12-13T19:28:49.277Z,6.35
2023-12-13T19:31:17.017Z,6.64
2023-12-13T19:33:46.277Z,6.70
2023-12-13T19:36:14.254Z,6.76
2023-12-13T19:38:41.993Z,6.51
2023-12-13T19:41:09.844Z,6.32
2023-12-13T19:43:40.397Z,6.45
2023-12-13T19:46:09.294Z,6.28
2023-12-13T19:48:37.245Z,6.37
2023-12-13T19:51:06.687Z,6.13
2023-12-13T19:53:34.970Z,6.35
2023-12-13T19:56:02.867Z,6.33
2023-12-13T19:58:30.993Z,6.24
2023-12-13T20:00:59.922Z,6.02
2023-12-13T20:03:27.816Z,6.36
2023-12-13T20:05:55.685Z,6.16
2023-12-13T20:08:24.905Z,6.16
2023-12-13T20:10:52.773Z,6.18
2023-12-13T20:13:20.572Z,6.39
2023-12-13T20:15:48.396Z,6.04
2023-12-13T20:18:16.324Z,6.01
2023-12-13T20:20:44.113Z,5.90
2023-12-13T20:23:11.945Z,6.44
2023-12-13T20:25:41.585Z,6.04
2023-12-13T20:28:09.418Z,6.09
2023-12-13T20:30:37.286Z,6.25
2023-12-13T20:33:06.072Z,5.98
2023-12-13T20:35:33.966Z,5.85
2023-12-13T20:38:02.111Z,6.01
2023-12-13T20:40:30.695Z,6.10
2023-12-13T20:42:59.865Z,5.95
2023-12-13T20:45:27.990Z,5.91
2023-12-13T20:47:55.844Z,5.79
2023-12-13T20:50:24.178Z,6.04
2023-12-13T20:52:52.100Z,6.07
2023-12-13T20:55:19.879Z,5.65
2023-12-13T20:57:47.670Z,6.00
2023-12-13T21:00:17.336Z,5.60
2023-12-13T21:02:45.029Z,5.45
2023-12-13T21:05:13.184Z,5.63
2023-12-13T21:07:41.250Z,5.68
2023-12-13T21:10:10.204Z,5.77
2023-12-13T21:12:37.938Z,5.64
2023-12-13T21:15:08.131Z,5.89
2023-12-13T21:17:39.129Z,5.56
2023-12-13T21:20:08.123Z,5.81
2023-12-13T21:22:36.290Z,5.63
2023-12-13T21:25:04.601Z,5.51
2023-12-13T21:27:32.876Z,5.51
2023-12-13T21:30:04.989Z,5.64
2023-12-13T21:32:34.329Z,5.66
2023-12-13T21:35:04.360Z,5.41
2023-12-13T21:37:32.547Z,5.50
2023-12-13T21:40:00.478Z,5.45
2023-12-13T21:42:28.184Z,5.60
2023-12-13T21:44:55.922Z,5.48
2023-12-13T21:47:26.381Z,5.41
2023-12-13T21:49:54.229Z,5.43
2023-12-13T21:52:23.334Z,5.43
2023-12-13T21:54:51.052Z,5.40
2023-12-13T21:57:18.802Z,5.54
2023-12-13T21:59:46.540Z,5.73
2023-12-13T22:02:14.402Z,5.57
2023-12-13T22:04:42.208Z,5.59
2023-12-13T22:07:10.214Z,5.35
2023-12-13T22:09:39.326Z,5.21
2023-12-13T22:12:08.469Z,5.35
2023-12-13T22:14:36.264Z,5.54
2023-12-13T22:17:04.987Z,5.60
2023-12-13T22:19:48.734Z,5.50
2023-12-13T22:22:18.186Z,5.83
2023-12-13T22:24:49.044Z,5.66
2023-12-13T22:27:16.861Z,5.54
2023-12-13T22:29:44.741Z,5.30
2023-12-13T22:32:12.940Z,5.52
2023-12-13T22:34:40.819Z,5.41
2023-12-13T22:37:08.584Z,5.67
2023-12-13T22:39:36.323Z,5.13
2023-12-13T22:42:06.080Z,5.25
2023-12-13T22:44:33.806Z,5.19
2023-12-13T22:47:01.613Z,5.13
2023-12-13T22:49:29.461Z,5.17
2023-12-13T22:52:19.278Z,5.33
2023-12-13T22:54:44.955Z,5.33
2023-12-13T22:57:14.073Z,5.46
2023-12-13T22:59:41.910Z,5.52
2023-12-13T23:02:09.682Z,5.20
2023-12-13T23:04:37.534Z,5.42
2023-12-13T23:07:05.619Z,5.31
2023-12-13T23:09:33.415Z,5.06
2023-12-13T23:12:01.157Z,5.06
2023-12-13T23:14:30.263Z,5.15
2023-12-13T23:17:00.354Z,5.20
2023-12-13T23:19:28.428Z,5.28
2023-12-13T23:21:56.170Z,5.30
2023-12-13T23:24:23.938Z,5.24
2023-12-13T23:26:51.873Z,5.29
2023-12-13T23:29:19.643Z,5.18
2023-12-13T23:31:48.827Z,4.85
2023-12-13T23:34:16.593Z,5.09
2023-12-13T23:36:44.332Z,5.31
2023-12-13T23:39:12.078Z,5.24
2023-12-13T23:41:39.824Z,5.05
2023-12-13T23:44:07.664Z,5.37
2023-12-13T23:46:35.501Z,5.01
2023-12-13T23:49:04.661Z,5.30
2023-12-13T23:51:32.482Z,5.45
2023-12-13T23:54:00.288Z,5.32
2023-12-13T23:56:28.059Z,5.20
2023-12-13T23:58:55.834Z,5.32
